createdAt,value
2023-05-09T00:00:53.217Z,13.05
2023-05-09T00:03:21.160Z,13.19
2023-05-09T00:05:48.928Z,13.11
2023-05-09T00:08:17.012Z,13.26
2023-05-09T00:10:44.069Z,13.18
2023-05-09T00:13:12.234Z,13.14
2023-05-09T00:15:39.409Z,13.15
2023-05-09T00:18:06.584Z,13.24
2023-05-09T00:20:34.125Z,13.18
2023-05-09T00:23:01.291Z,13.30
2023-05-09T00:25:28.223Z,13.27
2023-05-09T00:27:55.202Z,13.30
2023-05-09T00:30:22.112Z,13.34
2023-05-09T00:32:49.268Z,13.39
2023-05-09T00:35:16.374Z,13.34
2023-05-09T00:37:43.387Z,13.29
2023-05-09T00:40:10.884Z,13.28
2023-05-09T00:42:37.925Z,13.29
2023-05-09T00:45:05.599Z,13.25
2023-05-09T00:47:34.652Z,13.36
2023-05-09T00:50:02.069Z,13.28
2023-05-09T00:52:33.343Z,13.24
2023-05-09T00:55:02.088Z,13.31
2023-05-09T00:57:31.213Z,13.15
2023-05-09T00:59:58.291Z,13.22
2023-05-09T01:02:25.355Z,13.13
2023-05-09T01:04:52.591Z,13.23
2023-05-09T01:07:29.996Z,13.27
2023-05-09T01:10:01.750Z,13.25
2023-05-09T01:13:04.697Z,13.21
2023-05-09T01:15:39.246Z,12.89
2023-05-09T01:18:21.772Z,12.97
2023-05-09T01:21:03.577Z,12.89
2023-05-09T01:23:36.583Z,12.86
2023-05-09T01:26:06.210Z,12.95
2023-05-09T01:29:15.277Z,12.82
2023-05-09T01:31:45.432Z,12.87
2023-05-09T01:34:15.094Z,12.62
2023-05-09T01:36:43.425Z,12.71
2023-05-09T01:39:14.206Z,12.76
2023-05-09T01:41:41.363Z,12.64
2023-05-09T01:44:12.171Z,12.86
2023-05-09T01:46:40.391Z,12.87
2023-05-09T01:49:09.366Z,12.85
2023-05-09T01:51:38.642Z,12.90
2023-05-09T01:54:06.780Z,13.10
2023-05-09T01:56:36.480Z,12.93
2023-05-09T01:59:06.656Z,12.96
2023-05-09T02:01:34.971Z,12.96
2023-05-09T02:04:03.522Z,12.98
2023-05-09T02:06:32.656Z,12.90
2023-05-09T02:09:00.536Z,13.04
2023-05-09T02:11:27.457Z,13.03
2023-05-09T02:13:54.919Z,12.98
2023-05-09T02:16:22.558Z,13.06
2023-05-09T02:18:49.800Z,13.14
2023-05-09T02:21:17.159Z,13.25
2023-05-09T02:23:44.884Z,13.14
2023-05-09T02:26:12.566Z,13.07
2023-05-09T02:28:41.546Z,12.91
2023-05-09T02:31:09.103Z,13.10
2023-05-09T02:33:38.076Z,13.06
2023-05-09T02:36:06.111Z,13.11
2023-05-09T02:38:34.210Z,13.00
2023-05-09T02:41:03.014Z,13.05
2023-05-09T02:43:29.896Z,12.89
2023-05-09T02:45:56.944Z,13.01
2023-05-09T02:48:23.990Z,13.03
2023-05-09T02:50:51.037Z,13.07
2023-05-09T02:53:18.117Z,13.06
2023-05-09T02:55:45.196Z,12.99
2023-05-09T02:58:14.767Z,13.07
2023-05-09T03:00:43.784Z,13.11
2023-05-09T03:03:12.938Z,13.03
2023-05-09T03:05:40.961Z,12.84
2023-05-09T03:08:07.940Z,12.77
2023-05-09T03:10:35.253Z,12.82
2023-05-09T03:13:03.118Z,12.78
2023-05-09T03:15:30.075Z,12.74
2023-05-09T03:17:59.430Z,12.59
2023-05-09T03:20:27.587Z,12.53
2023-05-09T03:22:54.629Z,12.52
2023-05-09T03:25:22.426Z,12.52
2023-05-09T03:27:49.599Z,12.34
2023-05-09T03:30:17.299Z,12.44
2023-05-09T03:32:46.402Z,12.40
2023-05-09T03:35:13.648Z,12.41
2023-05-09T03:37:40.837Z,12.39
2023-05-09T03:40:09.000Z,12.33
2023-05-09T03:42:42.470Z,12.23
2023-05-09T03:45:10.647Z,12.38
2023-05-09T03:47:37.677Z,12.46
2023-05-09T03:50:06.371Z,12.55
2023-05-09T03:52:33.936Z,12.59
2023-05-09T03:55:01.286Z,12.68
2023-05-09T03:57:32.024Z,12.77
2023-05-09T03:59:59.103Z,12.82
2023-05-09T04:02:26.223Z,12.85
2023-05-09T04:04:53.558Z,12.89
2023-05-09T04:07:22.729Z,12.96
2023-05-09T04:09:50.391Z,13.06
2023-05-09T04:12:17.369Z,13.13
2023-05-09T04:14:47.380Z,13.01
2023-05-09T04:17:16.830Z,13.05
2023-05-09T04:19:43.942Z,13.18
2023-05-09T04:22:11.314Z,13.37
2023-05-09T04:24:38.652Z,13.42
2023-05-09T04:27:05.681Z,13.52
2023-05-09T04:29:32.687Z,13.61
2023-05-09T04:31:59.835Z,13.82
2023-05-09T04:34:28.638Z,13.60
2023-05-09T04:36:58.907Z,13.64
2023-05-09T04:39:25.982Z,13.69
2023-05-09T04:42:01.534Z,13.56
2023-05-09T04:44:29.028Z,13.62
2023-05-09T04:46:56.159Z,13.69
2023-05-09T04:49:23.145Z,13.79
2023-05-09T04:51:51.154Z,13.75
2023-05-09T04:54:18.136Z,13.75
2023-05-09T04:56:45.783Z,13.81
2023-05-09T04:59:13.677Z,13.60
2023-05-09T05:01:41.360Z,13.67
2023-05-09T05:04:08.664Z,13.77
2023-05-09T05:06:35.742Z,13.52
2023-05-09T05:09:03.690Z,13.48
2023-05-09T05:11:31.023Z,13.79
2023-05-09T05:13:58.034Z,13.86
2023-05-09T05:16:25.028Z,14.04
2023-05-09T05:18:52.280Z,13.93
2023-05-09T05:21:20.453Z,14.04
2023-05-09T05:23:47.493Z,13.95
2023-05-09T05:26:15.288Z,13.95
2023-05-09T05:28:42.644Z,14.22
2023-05-09T05:31:09.926Z,14.31
2023-05-09T05:33:37.007Z,14.30
2023-05-09T05:36:05.249Z,14.38
2023-05-09T05:38:32.373Z,14.67
2023-05-09T05:41:00.022Z,15.05
2023-05-09T05:43:28.345Z,15.08
2023-05-09T05:45:55.796Z,15.30
2023-05-09T05:48:24.295Z,14.83
2023-05-09T05:50:53.264Z,14.69
2023-05-09T05:53:24.170Z,15.03
2023-05-09T05:55:51.870Z,15.43
2023-05-09T05:58:18.941Z,15.22
2023-05-09T06:00:46.608Z,15.05
2023-05-09T06:03:14.694Z,15.14
2023-05-09T06:05:53.232Z,15.24
2023-05-09T06:08:20.238Z,15.66
2023-05-09T06:10:47.464Z,15.80
2023-05-09T06:13:14.684Z,15.87
2023-05-09T06:15:47.371Z,15.49
2023-05-09T06:18:14.468Z,15.39
2023-05-09T06:20:41.359Z,15.43
2023-05-09T06:23:08.775Z,14.97
2023-05-09T06:25:35.768Z,14.91
2023-05-09T06:28:02.838Z,14.93
2023-05-09T06:30:29.794Z,14.73
2023-05-09T06:32:58.374Z,14.59
2023-05-09T06:35:25.537Z,14.52
2023-05-09T06:37:52.554Z,14.51
2023-05-09T06:40:19.620Z,14.49
2023-05-09T06:42:47.015Z,14.39
2023-05-09T06:45:15.399Z,14.25
2023-05-09T06:47:42.801Z,14.32
2023-05-09T06:50:09.907Z,14.46
2023-05-09T06:52:37.144Z,14.86
2023-05-09T06:55:04.449Z,14.65
2023-05-09T06:57:33.058Z,15.10
2023-05-09T07:00:00.022Z,14.90
2023-05-09T07:02:27.489Z,15.05
2023-05-09T07:04:54.508Z,15.12
2023-05-09T07:07:22.186Z,15.35
2023-05-09T07:09:50.797Z,15.23
2023-05-09T07:12:20.020Z,15.26
2023-05-09T07:14:47.046Z,15.46
2023-05-09T07:17:22.940Z,15.77
2023-05-09T07:19:51.671Z,15.60
2023-05-09T07:22:19.347Z,15.84
2023-05-09T07:24:46.732Z,15.69
2023-05-09T07:27:14.180Z,15.72
2023-05-09T07:29:41.142Z,15.62
2023-05-09T07:32:08.183Z,15.84
2023-05-09T07:34:36.119Z,15.88
2023-05-09T07:37:03.160Z,15.94
2023-05-09T07:39:30.070Z,16.24
2023-05-09T07:41:57.270Z,16.44
2023-05-09T07:44:24.321Z,16.63
2023-05-09T07:46:51.429Z,16.80
2023-05-09T07:49:18.358Z,16.72
2023-05-09T07:51:45.341Z,16.51
2023-05-09T07:54:12.440Z,16.64
2023-05-09T07:56:39.549Z,16.46
2023-05-09T07:59:06.489Z,16.16
2023-05-09T08:01:33.616Z,15.73
2023-05-09T08:04:00.619Z,15.54
2023-05-09T08:06:27.926Z,15.61
2023-05-09T08:08:54.803Z,15.83
2023-05-09T08:11:21.769Z,15.98
2023-05-09T08:13:48.711Z,16.42
2023-05-09T08:16:17.560Z,16.50
2023-05-09T08:18:45.030Z,16.51
2023-05-09T08:21:12.078Z,16.90
2023-05-09T08:23:40.639Z,16.93
2023-05-09T08:26:07.635Z,16.97
2023-05-09T08:28:34.631Z,17.02
2023-05-09T08:31:01.750Z,17.11
2023-05-09T08:33:28.704Z,17.56
2023-05-09T08:35:56.429Z,17.77
2023-05-09T08:38:24.409Z,17.44
2023-05-09T08:40:51.810Z,17.89
2023-05-09T08:43:23.805Z,17.28
2023-05-09T08:46:01.216Z,17.68
2023-05-09T08:48:29.089Z,17.55
2023-05-09T08:50:57.056Z,17.29
2023-05-09T08:53:24.511Z,16.84
2023-05-09T08:55:52.269Z,16.74
2023-05-09T08:58:19.961Z,16.79
2023-05-09T09:00:47.809Z,16.94
2023-05-09T09:03:15.671Z,16.67
2023-05-09T09:05:44.579Z,16.13
2023-05-09T09:08:11.993Z,16.12
2023-05-09T09:10:47.657Z,15.95
2023-05-09T09:13:17.549Z,15.97
2023-05-09T09:15:47.080Z,15.52
2023-05-09T09:18:22.640Z,15.38
2023-05-09T09:20:58.012Z,15.56
2023-05-09T09:23:26.342Z,15.40
2023-05-09T09:26:06.296Z,15.50
2023-05-09T09:28:33.932Z,15.66
2023-05-09T09:31:01.551Z,15.84
2023-05-09T09:33:29.738Z,15.97
2023-05-09T09:35:57.285Z,15.76
2023-05-09T09:38:25.030Z,15.99
2023-05-09T09:40:51.869Z,16.12
2023-05-09T09:43:19.206Z,16.21
2023-05-09T09:45:52.974Z,16.42
2023-05-09T09:48:27.519Z,16.67
2023-05-09T09:50:56.779Z,16.66
2023-05-09T09:53:26.589Z,17.03
2023-05-09T09:55:53.910Z,16.84
2023-05-09T09:58:25.540Z,17.16
2023-05-09T10:01:13.972Z,16.98
2023-05-09T10:03:44.067Z,16.91
2023-05-09T10:06:12.698Z,16.95
2023-05-09T10:08:40.773Z,17.05
2023-05-09T10:11:09.053Z,17.15
2023-05-09T10:13:37.470Z,17.71
2023-05-09T10:16:06.214Z,17.49
2023-05-09T10:18:34.628Z,17.25
2023-05-09T10:21:03.666Z,17.32
2023-05-09T10:23:31.949Z,17.10
2023-05-09T10:26:15.417Z,16.84
2023-05-09T10:28:46.077Z,16.90
2023-05-09T10:31:18.647Z,17.10
2023-05-09T10:33:50.527Z,17.67
2023-05-09T10:36:20.507Z,17.92
2023-05-09T10:38:49.063Z,18.18
2023-05-09T10:41:17.520Z,17.77
2023-05-09T10:43:45.877Z,17.72
2023-05-09T10:46:13.612Z,17.91
2023-05-09T10:48:42.373Z,17.65
2023-05-09T10:51:09.762Z,16.85
2023-05-09T10:53:44.217Z,17.17
2023-05-09T10:56:35.925Z,17.18
2023-05-09T10:59:03.229Z,17.28
2023-05-09T11:01:39.524Z,17.63
2023-05-09T11:04:11.516Z,18.11
2023-05-09T11:06:44.809Z,17.94
2023-05-09T11:09:35.870Z,18.24
2023-05-09T11:12:06.151Z,18.16
2023-05-09T11:14:33.611Z,17.69
2023-05-09T11:17:04.243Z,17.64
2023-05-09T11:19:39.062Z,17.38
2023-05-09T11:22:16.515Z,17.33
2023-05-09T11:24:46.900Z,17.80
2023-05-09T11:27:20.716Z,17.70
2023-05-09T11:29:52.580Z,17.37
2023-05-09T11:32:21.198Z,17.42
2023-05-09T11:34:49.460Z,17.42
2023-05-09T11:37:18.488Z,17.38
2023-05-09T11:40:04.908Z,17.28
2023-05-09T11:42:32.564Z,17.65
2023-05-09T11:44:59.624Z,17.12
2023-05-09T11:47:28.917Z,17.27
2023-05-09T11:49:56.049Z,17.40
2023-05-09T11:52:23.110Z,17.50
2023-05-09T11:54:50.265Z,18.03
2023-05-09T11:57:17.965Z,17.83
2023-05-09T11:59:45.662Z,17.98
2023-05-09T12:02:13.581Z,17.80
2023-05-09T12:04:40.796Z,18.06
2023-05-09T12:07:08.023Z,17.42
2023-05-09T12:09:38.816Z,17.64
2023-05-09T12:12:11.606Z,17.88
2023-05-09T12:14:39.718Z,17.61
2023-05-09T12:17:08.023Z,17.49
2023-05-09T12:19:35.733Z,17.20
2023-05-09T12:22:08.370Z,17.05
2023-05-09T12:24:37.813Z,16.67
2023-05-09T12:27:05.247Z,16.57
2023-05-09T12:29:32.439Z,16.17
2023-05-09T12:32:00.634Z,15.96
2023-05-09T12:34:27.886Z,15.56
2023-05-09T12:36:54.768Z,15.58
2023-05-09T12:39:23.160Z,15.30
2023-05-09T12:42:01.171Z,15.57
2023-05-09T12:44:29.794Z,15.44
2023-05-09T12:46:59.593Z,15.57
2023-05-09T12:49:27.429Z,15.40
2023-05-09T12:51:57.473Z,15.45
2023-05-09T12:54:26.013Z,15.55
2023-05-09T12:56:56.918Z,15.42
2023-05-09T12:59:28.721Z,15.35
2023-05-09T13:02:01.855Z,15.15
2023-05-09T13:04:29.342Z,15.13
2023-05-09T13:06:58.656Z,15.55
2023-05-09T13:09:27.501Z,15.26
2023-05-09T13:11:54.581Z,15.43
2023-05-09T13:14:23.128Z,15.40
2023-05-09T13:16:50.133Z,15.76
2023-05-09T13:19:17.330Z,15.72
2023-05-09T13:21:44.431Z,15.53
2023-05-09T13:24:11.336Z,15.18
2023-05-09T13:26:38.268Z,15.25
2023-05-09T13:29:05.168Z,15.00
2023-05-09T13:31:32.088Z,14.61
2023-05-09T13:33:59.238Z,14.78
2023-05-09T13:36:26.823Z,14.58
2023-05-09T13:38:53.819Z,14.81
2023-05-09T13:41:22.410Z,14.65
2023-05-09T13:43:50.128Z,14.73
2023-05-09T13:46:17.217Z,14.62
2023-05-09T13:48:44.514Z,14.12
2023-05-09T13:51:11.563Z,14.41
2023-05-09T13:53:39.422Z,14.45
2023-05-09T13:56:09.711Z,14.39
2023-05-09T13:58:36.888Z,14.14
2023-05-09T14:01:04.266Z,14.13
2023-05-09T14:03:31.944Z,14.06
2023-05-09T14:05:59.705Z,13.90
2023-05-09T14:08:26.902Z,13.53
2023-05-09T14:10:53.945Z,13.65
2023-05-09T14:13:20.995Z,13.37
2023-05-09T14:15:47.965Z,13.47
2023-05-09T14:18:17.853Z,13.58
2023-05-09T14:20:47.052Z,13.76
2023-05-09T14:23:13.859Z,13.77
2023-05-09T14:25:40.887Z,13.57
2023-05-09T14:28:09.458Z,13.67
2023-05-09T14:30:36.772Z,13.46
2023-05-09T14:33:03.738Z,13.37
2023-05-09T14:35:33.944Z,13.55
2023-05-09T14:38:01.599Z,13.67
2023-05-09T14:40:32.207Z,13.65
2023-05-09T14:43:02.618Z,13.66
2023-05-09T14:45:31.476Z,13.55
2023-05-09T14:48:03.345Z,13.30
2023-05-09T14:50:30.665Z,13.58
2023-05-09T14:52:57.850Z,13.56
2023-05-09T14:55:26.664Z,13.66
2023-05-09T14:57:53.773Z,13.74
2023-05-09T15:00:22.239Z,13.77
2023-05-09T15:02:50.244Z,13.63
2023-05-09T15:05:17.760Z,13.57
2023-05-09T15:07:44.682Z,13.30
2023-05-09T15:10:11.962Z,13.41
2023-05-09T15:12:38.903Z,13.40
2023-05-09T15:15:14.150Z,13.18
2023-05-09T15:17:41.383Z,13.45
2023-05-09T15:20:08.572Z,13.28
2023-05-09T15:22:35.565Z,13.26
2023-05-09T15:25:05.385Z,13.23
2023-05-09T15:27:33.334Z,13.36
2023-05-09T15:30:00.518Z,13.21
2023-05-09T15:32:27.825Z,12.89
2023-05-09T15:34:55.165Z,13.12
2023-05-09T15:37:22.485Z,12.78
2023-05-09T15:39:49.639Z,12.90
2023-05-09T15:42:17.832Z,12.90
2023-05-09T15:44:47.246Z,12.66
2023-05-09T15:47:14.554Z,12.78
2023-05-09T15:49:41.507Z,12.35
2023-05-09T15:52:10.442Z,12.55
2023-05-09T15:54:38.078Z,12.40
2023-05-09T15:57:05.186Z,12.40
2023-05-09T15:59:32.121Z,12.40
2023-05-09T16:01:59.199Z,12.21
2023-05-09T16:04:26.290Z,12.27
2023-05-09T16:06:53.822Z,12.24
2023-05-09T16:09:20.866Z,11.98
2023-05-09T16:11:48.027Z,11.95
2023-05-09T16:14:15.006Z,12.01
2023-05-09T16:16:43.056Z,12.04
2023-05-09T16:19:11.718Z,12.05
2023-05-09T16:21:39.349Z,12.23
2023-05-09T16:24:06.582Z,12.05
2023-05-09T16:26:33.628Z,11.97
2023-05-09T16:29:01.841Z,12.08
2023-05-09T16:31:29.275Z,12.03
2023-05-09T16:33:56.529Z,12.10
2023-05-09T16:36:23.407Z,12.07
2023-05-09T16:38:50.613Z,11.88
2023-05-09T16:41:17.558Z,11.87
2023-05-09T16:43:44.516Z,12.03
2023-05-09T16:46:11.612Z,11.87
2023-05-09T16:48:38.656Z,11.91
2023-05-09T16:51:05.729Z,11.82
2023-05-09T16:53:32.682Z,11.67
2023-05-09T16:55:59.660Z,11.74
2023-05-09T16:58:26.702Z,11.71
2023-05-09T17:00:55.056Z,11.56
2023-05-09T17:03:22.056Z,11.65
2023-05-09T17:05:48.914Z,11.53
2023-05-09T17:08:15.902Z,11.53
2023-05-09T17:10:42.992Z,11.43
2023-05-09T17:13:10.343Z,11.34
2023-05-09T17:15:38.454Z,11.31
2023-05-09T17:18:06.610Z,11.34
2023-05-09T17:20:33.586Z,11.22
2023-05-09T17:23:00.648Z,11.18
2023-05-09T17:25:27.627Z,11.19
2023-05-09T17:27:54.537Z,11.09
2023-05-09T17:30:23.200Z,11.14
2023-05-09T17:32:50.662Z,11.15
2023-05-09T17:35:20.043Z,11.17
2023-05-09T17:37:46.954Z,11.05
2023-05-09T17:40:14.857Z,11.05
2023-05-09T17:42:42.367Z,10.93
2023-05-09T17:45:12.087Z,11.09
2023-05-09T17:47:39.416Z,11.01
2023-05-09T17:50:14.485Z,10.94
2023-05-09T17:52:41.987Z,10.91
2023-05-09T17:55:09.187Z,10.89
2023-05-09T17:57:36.292Z,10.81
2023-05-09T18:00:07.884Z,10.67
2023-05-09T18:02:41.284Z,10.61
2023-05-09T18:05:10.046Z,10.53
2023-05-09T18:07:39.551Z,10.53
2023-05-09T18:10:07.915Z,10.61
2023-05-09T18:12:37.019Z,10.59
2023-05-09T18:15:05.014Z,10.49
2023-05-09T18:17:33.249Z,10.53
2023-05-09T18:20:00.241Z,10.45
2023-05-09T18:22:27.064Z,10.41
2023-05-09T18:24:54.091Z,10.38
2023-05-09T18:27:21.461Z,10.39
2023-05-09T18:29:48.591Z,10.34
2023-05-09T18:32:16.310Z,10.25
2023-05-09T18:34:43.256Z,10.25
2023-05-09T18:37:10.522Z,10.29
2023-05-09T18:39:37.442Z,10.14
2023-05-09T18:42:06.377Z,10.23
2023-05-09T18:44:33.526Z,10.18
2023-05-09T18:47:00.664Z,10.25
2023-05-09T18:49:27.618Z,10.26
2023-05-09T18:51:56.477Z,10.37
2023-05-09T18:54:23.538Z,10.31
2023-05-09T18:56:50.569Z,10.37
2023-05-09T18:59:17.924Z,10.26
2023-05-09T19:01:44.908Z,10.23
2023-05-09T19:04:12.063Z,10.19
2023-05-09T19:06:39.200Z,10.27
2023-05-09T19:09:06.116Z,10.19
2023-05-09T19:11:33.103Z,10.20
2023-05-09T19:14:00.161Z,10.15
2023-05-09T19:16:27.143Z,10.14
2023-05-09T19:18:56.207Z,10.13
2023-05-09T19:21:41.865Z,10.17
2023-05-09T19:24:09.172Z,10.09
2023-05-09T19:26:36.113Z,10.05
2023-05-09T19:29:07.809Z,10.08
2023-05-09T19:31:37.111Z,10.10
2023-05-09T19:34:04.003Z,9.89
2023-05-09T19:36:31.983Z,9.93
2023-05-09T19:38:58.934Z,9.94
2023-05-09T19:41:26.172Z,10.03
2023-05-09T19:43:53.493Z,10.05
2023-05-09T19:46:22.303Z,10.02
2023-05-09T19:48:49.338Z,10.08
2023-05-09T19:51:16.351Z,9.98
2023-05-09T19:53:43.216Z,9.97
2023-05-09T19:56:10.204Z,9.92
2023-05-09T19:58:37.177Z,9.88
2023-05-09T20:01:07.209Z,9.96
2023-05-09T20:03:36.746Z,9.88
2023-05-09T20:06:03.756Z,9.96
2023-05-09T20:08:31.185Z,9.96
2023-05-09T20:11:00.035Z,9.97
2023-05-09T20:13:27.793Z,9.91
2023-05-09T20:15:55.277Z,9.90
2023-05-09T20:18:22.202Z,9.92
2023-05-09T20:20:49.132Z,9.90
2023-05-09T20:23:16.072Z,10.03
2023-05-09T20:25:42.909Z,10.17
2023-05-09T20:28:11.898Z,10.18
2023-05-09T20:30:38.954Z,10.07
2023-05-09T20:33:05.930Z,9.93
2023-05-09T20:35:33.047Z,10.10
2023-05-09T20:37:59.996Z,10.14
2023-05-09T20:40:26.931Z,9.93
2023-05-09T20:42:53.953Z,10.11
2023-05-09T20:45:21.207Z,9.88
2023-05-09T20:47:48.217Z,9.94
2023-05-09T20:50:15.245Z,9.97
2023-05-09T20:52:43.394Z,9.94
2023-05-09T20:55:10.265Z,9.87
2023-05-09T20:57:37.354Z,10.00
2023-05-09T21:00:06.119Z,9.90
2023-05-09T21:02:36.060Z,9.91
2023-05-09T21:05:03.876Z,9.90
2023-05-09T21:07:33.064Z,9.73
2023-05-09T21:10:00.175Z,9.76
2023-05-09T21:12:27.502Z,9.88
2023-05-09T21:14:55.016Z,9.91
2023-05-09T21:17:21.972Z,9.75
2023-05-09T21:19:51.587Z,9.81
2023-05-09T21:22:18.674Z,9.76
2023-05-09T21:24:45.682Z,9.71
2023-05-09T21:27:12.823Z,9.69
2023-05-09T21:29:40.173Z,9.79
2023-05-09T21:32:07.150Z,9.70
2023-05-09T21:34:34.152Z,9.67
2023-05-09T21:37:01.031Z,9.56
2023-05-09T21:39:28.047Z,9.65
2023-05-09T21:41:54.899Z,9.73
2023-05-09T21:44:21.741Z,9.68
2023-05-09T21:46:48.861Z,9.77
2023-05-09T21:49:20.976Z,9.82
2023-05-09T21:51:48.686Z,9.83
2023-05-09T21:54:15.615Z,9.78
2023-05-09T21:56:42.672Z,9.63
2023-05-09T21:59:10.678Z,9.61
2023-05-09T22:01:37.626Z,9.69
2023-05-09T22:04:05.700Z,9.65
2023-05-09T22:06:33.334Z,9.67
2023-05-09T22:09:00.245Z,9.61
2023-05-09T22:11:27.124Z,9.60
2023-05-09T22:13:55.412Z,9.54
2023-05-09T22:16:22.930Z,9.57
2023-05-09T22:18:49.794Z,9.60
2023-05-09T22:21:16.838Z,9.56
2023-05-09T22:23:43.967Z,9.66
2023-05-09T22:26:11.135Z,9.55
2023-05-09T22:28:38.102Z,9.43
2023-05-09T22:31:06.761Z,9.51
2023-05-09T22:33:34.332Z,9.56
2023-05-09T22:36:01.405Z,9.47
2023-05-09T22:38:28.463Z,9.42
2023-05-09T22:40:55.304Z,9.53
2023-05-09T22:43:22.520Z,9.43
2023-05-09T22:45:49.755Z,9.29
2023-05-09T22:48:16.894Z,9.35
2023-05-09T22:50:43.802Z,9.41
2023-05-09T22:53:11.011Z,9.37
2023-05-09T22:55:38.788Z,9.36
2023-05-09T22:58:06.111Z,9.27
2023-05-09T23:00:32.951Z,9.23
2023-05-09T23:03:00.569Z,9.26
2023-05-09T23:05:27.557Z,9.25
2023-05-09T23:07:54.813Z,9.32
2023-05-09T23:10:21.916Z,9.31
2023-05-09T23:12:49.010Z,9.24
2023-05-09T23:15:16.095Z,9.27
2023-05-09T23:17:43.038Z,9.27
2023-05-09T23:20:10.757Z,9.31
2023-05-09T23:22:37.595Z,9.29
2023-05-09T23:25:06.484Z,9.21
2023-05-09T23:27:33.509Z,9.26
2023-05-09T23:30:00.387Z,9.22
2023-05-09T23:32:27.551Z,9.23
2023-05-09T23:34:54.473Z,9.26
2023-05-09T23:37:21.325Z,9.33
2023-05-09T23:39:48.238Z,9.31
2023-05-09T23:42:15.138Z,9.36
2023-05-09T23:44:42.651Z,9.30
2023-05-09T23:47:09.428Z,9.26
2023-05-09T23:49:36.607Z,9.18
2023-05-09T23:52:03.533Z,9.20
2023-05-09T23:54:30.703Z,9.13
2023-05-09T23:56:58.144Z,9.19
2023-05-09T23:59:25.104Z,9.26
